Latest Weather Observations for Moree

IDN60801

Issued at 8:35 pm EST Sunday 20 April 2014 (issued every 30 minutes, with the page automatically refreshed every 10 minutes)

About weather observations | Map of weather stations | Latest weather observations for NSW | Other Formats
Station Details ID: 053115 Name: MOREE AERO Lat: -29.49 Lon: 149.85 Height: 213.0 m
Data from the previous 72 hours. | See also: Recent months at Moree
Date/Time
EST
Temp
°C
App
Temp
°C
Dew
Point
Rel
Hum
%
Delta-T
°C
Wind Press
QNH
hPa
Press
MSL
hPa
Rain
since 9 am
mm
Dir
 
Spd
km/h
Gust
km/h
Spd
kts
Gust
kts
20/08:30pm 17.1 12.0 3.1 39 6.5 SSW 19 20 10 11 1018.5 - 0.0
20/08:00pm 17.1 13.0 4.5 43 6.0 SSW 15 17 8 9 1018.4 - 0.0
20/07:30pm 17.1 14.6 6.7 50 5.2 SSW 9 9 5 5 1018.0 - 0.0
20/07:00pm 18.2 15.7 6.7 47 5.8 SW 9 11 5 6 1017.7 - 0.0
20/06:30pm 19.2 17.0 6.2 42 6.5 SSW 7 9 4 5 1017.5 - 0.0
20/06:00pm 21.3 18.3 6.1 37 7.7 SW 11 13 6 7 1017.1 1016.6 0.0
20/05:30pm 22.6 19.2 5.7 33 8.6 W 13 15 7 8 1016.8 - 0.0
20/05:00pm 24.3 20.2 4.6 28 9.9 SW 15 19 8 10 1016.4 - 0.0
20/04:30pm 25.0 21.4 5.0 27 10.2 W 13 17 7 9 1016.4 - 0.0
20/04:00pm 25.2 20.2 4.7 26 10.4 SW 20 28 11 15 1016.2 - 0.0
20/03:30pm 25.8 22.3 5.5 27 10.5 W 13 19 7 10 1016.2 - 0.0
20/03:00pm 25.8 21.7 6.0 28 10.3 W 17 30 9 16 1016.3 1015.8 0.0
20/02:30pm 25.9 22.2 6.2 28 10.3 WNW 15 22 8 12 1016.4 - 0.0
20/02:00pm 26.3 23.4 6.3 28 10.5 W 11 24 6 13 1016.4 - 0.0
20/01:30pm 25.8 21.7 6.0 28 10.3 SW 17 30 9 16 1016.5 - 0.0
20/01:00pm 25.3 20.7 6.6 30 9.8 WSW 20 28 11 15 1016.8 - 0.0
20/12:30pm 25.7 20.8 7.0 30 9.9 SW 22 28 12 15 1017.1 - 0.0
20/12:00pm 25.3 22.3 7.5 32 9.5 S 13 19 7 10 1017.7 1017.1 0.0
20/11:30am 24.5 21.7 7.0 32 9.2 W 11 19 6 10 1018.1 - 0.0
20/11:00am 24.4 22.1 7.4 33 9.0 N 9 15 5 8 1018.6 - 0.0
20/10:30am 24.2 22.9 7.6 34 8.8 SW 4 11 2 6 1019.0 - 0.0
20/10:00am 23.3 20.6 7.3 35 8.4 NE 11 15 6 8 1018.8 - 0.0
20/09:30am 21.7 19.5 7.8 40 7.3 NNE 9 13 5 7 1018.9 - 0.0
20/09:00am 20.8 18.1 8.8 46 6.4 ENE 13 17 7 9 1018.9 1018.3 0.0
20/08:30am 18.9 15.6 7.9 49 5.7 E 15 19 8 10 1018.8 - 0.0
20/08:00am 15.7 13.2 8.2 61 3.8 E 11 15 6 8 1018.6 - 0.0
20/07:30am 13.5 11.3 7.7 68 2.9 E 9 11 5 6 1018.3 - 0.0
20/07:00am 11.5 8.6 6.5 71 2.4 ENE 11 15 6 8 1018.0 - 0.0
20/06:30am 10.3 7.4 6.3 76 1.9 NE 11 15 6 8 1017.6 - 0.0
20/06:00am 11.1 8.9 6.2 72 2.3 ENE 7 11 4 6 1017.3 1016.8 0.0
20/05:30am 10.8 10.0 6.6 75 2.0 CALM 0 0 0 0 1017.0 - 0.0
20/05:00am 10.6 9.4 6.4 75 2.0 E 2 7 1 4 1016.7 - 0.0
20/04:30am 11.1 10.3 6.5 73 2.2 CALM 0 7 0 4 1016.5 - 0.0
20/04:00am 11.2 9.1 6.6 73 2.2 E 7 7 4 4 1016.2 - 0.0
20/03:30am 12.2 9.6 6.3 67 2.8 S 9 9 5 5 1016.1 - 0.0
20/03:00am 12.3 9.8 6.5 67 2.8 ESE 9 11 5 6 1016.3 1015.8 0.0
20/02:30am 12.5 10.1 7.2 70 2.6 SE 9 9 5 5 1016.3 - 0.0
20/02:00am 12.2 9.9 7.3 72 2.4 S 9 9 5 5 1016.4 - 0.0
20/01:30am 12.7 10.3 7.2 69 2.7 SSW 9 13 5 7 1016.5 - 0.0
20/01:00am 12.9 10.9 7.2 68 2.8 SSW 7 7 4 4 1016.7 - 0.0
20/12:30am 13.3 12.3 7.4 67 2.9 SSW 2 7 1 4 1016.9 - 0.0
20/12:00am 13.4 11.5 7.5 67 2.9 SSW 7 9 4 5 1016.8 1016.3 0.0
 
Date/Time
EST
Temp
°C
App
Temp
°C
Dew
Point
Rel
Hum
%
Delta-T
°C
Wind Press
QNH
hPa
Press
MSL
hPa
Rain
since 9 am
mm
Dir
 
Spd
km/h
Gust
km/h
Spd
kts
Gust
kts
19/11:30pm 13.9 11.9 7.0 63 3.4 SSW 7 11 4 6 1017.0 - 0.0
19/11:00pm 14.5 12.1 7.0 60 3.7 WSW 9 11 5 6 1016.9 - 0.0
19/10:30pm 14.7 11.5 6.8 59 3.9 SSW 13 15 7 8 1016.8 - 0.0
19/10:00pm 16.0 12.8 6.7 54 4.6 S 13 15 7 8 1016.8 - 0.0
19/09:30pm 16.1 12.7 6.1 51 4.9 S 13 17 7 9 1016.7 - 0.0
19/09:00pm 17.4 15.5 6.6 49 5.4 SSW 6 11 3 6 1016.6 1016.1 0.0
19/08:30pm 18.1 16.3 7.0 48 5.6 WSW 6 7 3 4 1016.6 - 0.0
19/08:00pm 19.5 17.3 6.4 42 6.6 W 7 9 4 5 1016.5 - 0.0
19/07:30pm 19.1 16.8 7.4 46 6.0 NW 9 11 5 6 1016.1 - 0.0
19/07:00pm 19.9 17.6 7.3 44 6.5 W 9 11 5 6 1015.7 - 0.0
19/06:30pm 19.3 17.3 6.9 44 6.3 WNW 7 9 4 5 1015.4 - 0.0
19/06:00pm 22.0 19.5 6.4 36 8.0 W 9 11 5 6 1015.0 1014.4 0.0
19/05:30pm 23.9 20.1 5.8 31 9.3 WSW 15 19 8 10 1014.7 - 0.0
19/05:00pm 25.0 21.5 5.6 28 10.0 W 13 17 7 9 1014.5 - 0.0
19/04:30pm 25.3 21.7 4.9 27 10.4 WSW 13 17 7 9 1014.5 - 0.0
19/04:00pm 25.8 21.9 5.5 27 10.5 W 15 22 8 12 1014.4 - 0.0
19/03:30pm 25.8 23.4 5.2 26 10.6 W 7 13 4 7 1014.6 - 0.0
19/03:00pm 25.9 20.8 4.1 24 11.0 W 20 28 11 15 1014.7 1014.1 0.0
19/02:30pm 25.8 21.7 4.2 25 10.9 SSW 15 22 8 12 1014.8 - 0.0
19/02:00pm 25.3 20.3 4.6 26 10.5 WSW 20 35 11 19 1014.9 - 0.0
19/01:30pm 25.8 21.4 4.8 26 10.7 WNW 17 30 9 16 1015.1 - 0.0
19/01:00pm 25.2 21.2 4.7 26 10.4 W 15 28 8 15 1015.7 - 0.0
19/12:30pm 25.0 20.1 4.0 25 10.5 W 19 28 10 15 1016.3 - 0.0
19/12:00pm 25.3 21.4 5.2 27 10.3 WNW 15 28 8 15 1016.8 1016.3 0.0
19/11:30am 24.6 21.8 5.2 28 9.9 SW 9 17 5 9 1017.3 - 0.0
19/11:00am 24.3 22.5 5.5 29 9.6 N 4 9 2 5 1017.8 - 0.0
19/10:30am 23.9 21.1 5.2 30 9.5 N 9 13 5 7 1018.1 - 0.0
19/10:00am 22.8 20.1 7.3 37 8.1 N 11 17 6 9 1018.3 - 0.0
19/09:30am 21.2 18.6 7.8 42 7.0 N 11 13 6 7 1018.5 - 0.0
19/09:00am 19.3 16.9 7.2 45 6.2 NNE 9 11 5 6 1018.6 1018.0 0.0
19/08:30am 17.5 14.7 7.0 50 5.3 NNE 11 15 6 8 1018.6 - 0.0
19/08:00am 15.5 12.5 6.1 53 4.6 NNE 11 15 6 8 1018.3 - 0.0
19/07:30am 13.4 10.0 6.1 61 3.5 NE 13 15 7 8 1018.1 - 0.0
19/07:00am 11.4 8.4 6.1 70 2.5 NE 11 13 6 7 1017.9 - 0.0
19/06:30am 10.2 7.5 5.4 72 2.2 ENE 9 13 5 7 1017.7 - 0.0
19/06:00am 10.1 6.6 5.6 73 2.1 NE 13 13 7 7 1017.5 1016.9 0.0
19/05:30am 10.2 7.1 5.7 73 2.1 ENE 11 13 6 7 1017.2 - 0.0
19/05:00am 10.4 9.5 5.9 73 2.1 CALM 0 0 0 0 1017.1 - 0.0
19/04:30am 10.7 9.8 6.0 73 2.2 CALM 0 0 0 0 1017.0 - 0.0
19/04:00am 10.9 9.8 5.0 67 2.7 CALM 0 0 0 0 1016.8 - 0.0
19/03:30am 11.2 10.2 5.6 68 2.6 CALM 0 0 0 0 1016.7 - 0.0
19/03:00am 11.4 10.5 5.9 69 2.6 CALM 0 0 0 0 1016.7 1016.2 0.0
19/02:30am 12.4 10.3 5.9 64 3.1 ESE 6 9 3 5 1016.8 - 0.0
19/02:00am 13.2 12.2 5.6 60 3.6 CALM 0 0 0 0 1017.0 - 0.0
19/01:30am 12.3 11.4 6.0 65 3.0 CALM 0 0 0 0 1017.2 - 0.0
19/01:00am 12.1 11.1 5.7 65 3.0 CALM 0 0 0 0 1017.3 - 0.0
19/12:30am 12.4 11.5 6.1 65 3.0 CALM 0 0 0 0 1017.3 - 0.0
19/12:00am 13.0 12.1 6.1 63 3.3 CALM 0 0 0 0 1017.3 1016.8 0.0
 
Date/Time
EST
Temp
°C
App
Temp
°C
Dew
Point
Rel
Hum
%
Delta-T
°C
Wind Press
QNH
hPa
Press
MSL
hPa
Rain
since 9 am
mm
Dir
 
Spd
km/h
Gust
km/h
Spd
kts
Gust
kts
18/11:30pm 13.2 12.2 5.6 60 3.6 CALM 0 0 0 0 1017.2 - 0.0
18/11:00pm 13.5 12.7 6.5 62 3.4 CALM 0 0 0 0 1017.5 - 0.0
18/10:30pm 14.2 13.2 5.6 56 4.1 CALM 0 0 0 0 1017.6 - 0.0
18/10:00pm 14.9 13.9 5.8 54 4.4 CALM 0 0 0 0 1017.6 - 0.0
18/09:30pm 14.8 12.7 6.6 58 4.0 SW 7 7 4 4 1017.3 - 0.0
18/09:00pm 15.5 14.6 6.1 53 4.6 CALM 0 0 0 0 1017.0 1016.5 0.0
18/08:30pm 16.2 13.9 5.7 49 5.1 SW 7 7 4 4 1016.8 - 0.0
18/08:00pm 17.1 14.4 5.6 46 5.6 SW 9 9 5 5 1016.7 - 0.0
18/07:30pm 18.6 15.5 5.4 42 6.5 SW 11 11 6 6 1016.6 - 0.0
18/07:00pm 19.9 16.3 4.8 37 7.4 WSW 13 15 7 8 1016.4 - 0.0
18/06:30pm 20.7 16.2 4.0 33 8.1 WSW 17 17 9 9 1016.1 - 0.0
18/06:00pm 21.9 17.0 3.9 30 8.8 WSW 19 26 10 14 1015.9 1015.3 0.0
18/05:30pm 23.5 17.5 3.2 26 9.9 WSW 24 33 13 18 1015.7 - 0.0
18/05:00pm 24.6 19.4 3.6 25 10.4 SW 20 35 11 19 1015.4 - 0.0
18/04:30pm 24.9 18.2 3.8 25 10.5 WSW 28 37 15 20 1015.2 - 0.0
18/04:00pm 25.3 18.9 3.3 24 10.9 SW 26 37 14 20 1015.1 - 0.0
18/03:30pm 25.4 19.5 3.8 24 10.8 SW 24 35 13 19 1015.0 - 0.0
18/03:00pm 25.6 18.5 3.8 24 10.9 SW 30 39 16 21 1015.1 1014.5 0.0
18/02:30pm 25.5 18.5 4.0 25 10.8 SSW 30 41 16 22 1015.3 - 0.0
18/02:00pm 25.1 18.5 4.2 26 10.5 SW 28 39 15 21 1015.6 - 0.0
18/01:30pm 25.3 18.3 4.2 25 10.6 SW 30 43 16 23 1015.8 - 0.0
18/01:00pm 24.8 18.7 4.6 27 10.2 SSW 26 39 14 21 1016.1 - 0.0
18/12:30pm 24.4 18.3 4.8 28 9.9 SSW 26 35 14 19 1016.6 - 0.0
18/12:00pm 23.8 18.8 4.4 28 9.7 SSW 20 33 11 18 1017.1 1016.6 0.0
18/11:30am 23.4 17.6 4.6 29 9.4 SSW 24 35 13 19 1017.9 - 0.0
18/11:00am 22.9 16.1 5.3 32 8.9 SW 30 35 16 19 1018.3 - 0.0
18/10:30am 22.2 17.4 5.6 34 8.4 SSW 20 28 11 15 1018.5 - 0.0
18/10:00am 21.5 18.3 7.0 39 7.5 SW 13 19 7 10 1018.7 - 0.0
18/09:30am 20.5 18.8 8.3 45 6.4 S 7 13 4 7 1018.7 - 0.0
18/09:00am 19.0 17.8 8.2 49 5.6 SSE 4 9 2 5 1018.8 1018.2 0.0
18/08:30am 17.1 16.6 7.7 54 4.8 CALM 0 0 0 0 1018.9 - 0.0
18/08:00am 14.3 13.8 7.7 64 3.3 CALM 0 0 0 0 1018.9 - 0.0
18/07:30am 13.3 12.7 7.4 67 2.9 CALM 0 0 0 0 1018.8 - 0.0
18/07:00am 9.9 8.9 5.8 75 1.9 CALM 0 0 0 0 1018.8 - 0.0
18/06:30am 8.5 7.5 5.4 81 1.4 CALM 0 0 0 0 1018.5 - 0.0
18/06:00am 8.0 6.9 5.3 83 1.2 CALM 0 0 0 0 1018.2 1017.6 0.0
18/05:30am 9.3 7.9 5.4 76 1.8 SSW 2 11 1 6 1018.2 - 0.0
18/05:00am 9.2 8.3 6.0 80 1.5 CALM 0 0 0 0 1017.8 - 0.0
18/04:30am 9.8 8.9 5.9 77 1.8 CALM 0 0 0 0 1017.6 - 0.0
18/04:00am 9.8 8.8 5.7 75 1.9 CALM 0 0 0 0 1017.6 - 0.0
18/03:30am 10.6 9.6 5.7 72 2.3 CALM 0 0 0 0 1017.5 - 0.0
18/03:00am 10.1 9.1 5.8 74 2.0 CALM 0 0 0 0 1017.5 1016.9 0.0
18/02:30am 10.3 9.3 5.8 73 2.1 CALM 0 0 0 0 1017.7 - 0.0
18/02:00am 10.9 9.8 5.3 68 2.6 CALM 0 0 0 0 1017.7 - 0.0
18/01:30am 11.2 10.2 5.6 68 2.6 CALM 0 0 0 0 1018.1 - 0.0
18/01:00am 11.5 10.4 5.3 65 2.9 CALM 0 0 0 0 1018.3 - 0.0
18/12:30am 12.5 11.4 5.0 60 3.5 CALM 0 0 0 0 1018.5 - 0.0
18/12:00am 12.9 11.8 5.2 59 3.6 CALM 0 0 0 0 1018.7 1018.1 0.0
 
Date/Time
EST
Temp
°C
App
Temp
°C
Dew
Point
Rel
Hum
%
Delta-T
°C
Wind Press
QNH
hPa
Press
MSL
hPa
Rain
since 9 am
mm
Dir
 
Spd
km/h
Gust
km/h
Spd
kts
Gust
kts
17/11:30pm 13.8 11.3 4.6 54 4.3 SSW 7 7 4 4 1018.8 - 0.0
17/11:00pm 14.1 10.4 4.7 53 4.4 WSW 13 15 7 8 1018.9 - 0.0
17/10:30pm 14.6 10.5 4.3 50 4.8 SW 15 19 8 10 1018.9 - 0.0
17/10:00pm 14.9 12.1 5.2 52 4.6 SW 9 11 5 6 1018.9 - 0.0
17/09:30pm 15.8 12.6 4.9 48 5.2 WSW 11 13 6 7 1018.9 - 0.0
17/09:00pm 16.3 13.1 5.0 47 5.4 SW 11 13 6 7 1018.7 1018.1 0.0

Other Formats:

Comma delimited format used in spreadsheet applications
http://www.bom.gov.au/fwo/IDN60801/IDN60801.95527.axf

JavaScript Object Notation format (JSON) in row-major order
http://www.bom.gov.au/fwo/IDN60801/IDN60801.95527.json